Time;durP1;ratioP1;P1;durP2;ratioP2;P2;SDS_P1;SDS_P2;PMS_P1;PMS_P2;Temp;Humidity;BMP_temperature;BMP_pressure;BME280_temperature;BME280_humidity;BME280_pressure;Samples;Min_cycle;Max_cycle;Signal;HPM_P1;HPM_P2
2021/03/14 00:02:14;;;;;;;2.53;0.77;;;5.80;97.70;;;;;;5074077;28;20024;-75
2021/03/14 00:04:41;;;;;;;1.00;0.65;;;5.80;97.50;;;;;;5092061;28;20053;-75
2021/03/14 00:07:07;;;;;;;0.95;0.68;;;5.80;96.10;;;;;;5074660;28;20120;-76
2021/03/14 00:09:33;;;;;;;1.35;1.00;;;5.80;96.00;;;;;;5092450;28;20016;-76
2021/03/14 00:12:00;;;;;;;2.47;0.70;;;6.00;94.90;;;;;;5092255;28;20043;-76
2021/03/14 00:14:26;;;;;;;4.20;0.90;;;6.00;93.80;;;;;;5074177;28;20384;-76
2021/03/14 00:16:54;;;;;;;2.40;0.80;;;6.00;93.20;;;;;;5092091;28;20543;-75
2021/03/14 00:19:20;;;;;;;1.65;0.63;;;6.00;93.20;;;;;;5092183;28;20066;-75
2021/03/14 00:21:46;;;;;;;2.55;1.23;;;6.10;92.80;;;;;;5092188;28;20025;-76
2021/03/14 00:24:12;;;;;;;3.83;0.70;;;6.20;91.80;;;;;;5074035;28;20027;-76
2021/03/14 00:26:38;;;;;;;4.55;0.77;;;6.30;91.40;;;;;;5092049;28;20028;-76
2021/03/14 00:29:05;;;;;;;1.65;0.70;;;6.30;91.10;;;;;;5074128;28;20410;-75
2021/03/14 00:31:31;;;;;;;1.05;0.63;;;6.30;90.80;;;;;;5074132;28;20028;-75
2021/03/14 00:33:57;;;;;;;3.00;0.70;;;6.40;90.70;;;;;;5092030;28;20032;-76
2021/03/14 00:36:23;;;;;;;1.40;0.77;;;6.60;90.40;;;;;;5092196;28;20043;-76
2021/03/14 00:38:48;;;;;;;5.10;1.20;;;6.50;90.20;;;;;;5092061;28;20052;-76
2021/03/14 00:41:15;;;;;;;5.18;1.00;;;6.50;90.30;;;;;;5091897;28;20056;-75
2021/03/14 00:43:40;;;;;;;2.63;1.15;;;6.60;90.10;;;;;;5091953;28;20025;-76
2021/03/14 00:46:06;;;;;;;7.22;1.25;;;6.50;90.00;;;;;;5073590;28;20034;-76
2021/03/14 00:48:32;;;;;;;4.30;1.15;;;6.40;90.50;;;;;;5091887;28;20020;-76
2021/03/14 00:50:58;;;;;;;3.25;0.88;;;6.50;90.90;;;;;;5091912;28;20027;-76
2021/03/14 00:53:23;;;;;;;2.25;0.70;;;6.50;91.20;;;;;;5057136;28;20031;-76
2021/03/14 00:55:49;;;;;;;3.35;0.80;;;6.30;92.20;;;;;;5073704;28;20028;-75
2021/03/14 00:58:15;;;;;;;1.80;0.70;;;5.90;94.70;;;;;;5056859;28;20056;-75
2021/03/14 01:00:41;;;;;;;5.47;0.70;;;5.50;98.50;;;;;;5091773;28;20024;-75
2021/03/14 01:03:07;;;;;;;0.70;0.63;;;5.30;99.90;;;;;;5091775;28;20024;-76
2021/03/14 01:05:32;;;;;;;0.40;0.40;;;5.10;99.90;;;;;;5073324;28;20077;-75
2021/03/14 01:07:58;;;;;;;2.10;0.63;;;5.00;99.90;;;;;;5093327;28;20037;-76
2021/03/14 01:10:24;;;;;;;0.60;0.57;;;4.80;99.90;;;;;;5095727;28;20078;-75
2021/03/14 01:12:50;;;;;;;0.93;0.45;;;4.90;99.90;;;;;;5095734;28;20020;-76
2021/03/14 01:15:16;;;;;;;0.40;0.40;;;4.80;99.90;;;;;;5077314;28;20032;-75
2021/03/14 01:17:42;;;;;;;0.60;0.60;;;4.80;99.90;;;;;;5077165;28;20089;-75
2021/03/14 01:20:15;;;;;;;0.45;0.45;;;4.80;99.90;;;;;;5077501;28;20023;-76
2021/03/14 01:22:41;;;;;;;0.63;0.30;;;5.00;99.90;;;;;;5077233;28;20115;-76
2021/03/14 01:25:08;;;;;;;0.40;0.40;;;4.90;99.90;;;;;;5077275;28;20067;-76
2021/03/14 01:27:34;;;;;;;0.43;0.43;;;4.80;99.90;;;;;;5095373;28;20012;-75
2021/03/14 01:30:00;;;;;;;0.30;0.30;;;4.90;99.90;;;;;;5095274;28;20031;-76
2021/03/14 01:32:26;;;;;;;0.30;0.30;;;4.90;99.90;;;;;;5095326;28;20020;-75
2021/03/14 01:34:52;;;;;;;0.43;0.30;;;4.90;99.90;;;;;;5095097;28;20024;-76
2021/03/14 01:37:18;;;;;;;0.30;0.30;;;4.80;99.90;;;;;;5060248;28;20034;-75
2021/03/14 01:39:45;;;;;;;0.20;0.20;;;4.80;99.90;;;;;;5076963;28;20031;-75
2021/03/14 01:42:12;;;;;;;0.40;0.40;;;4.90;99.90;;;;;;5095312;28;20514;-75
2021/03/14 01:44:41;;;;;;;0.45;0.45;;;4.80;99.90;;;;;;5094989;28;20020;-76
2021/03/14 01:47:10;;;;;;;0.40;0.40;;;4.70;99.90;;;;;;5095034;28;20034;-76
2021/03/14 01:49:36;;;;;;;0.50;0.50;;;4.60;99.90;;;;;;5060091;28;20086;-75
2021/03/14 01:52:01;;;;;;;1.30;0.60;;;4.60;99.90;;;;;;5094898;28;20505;-75
2021/03/14 01:54:27;;;;;;;0.57;0.50;;;4.70;99.90;;;;;;5094790;28;20024;-76
2021/03/14 01:56:53;;;;;;;1.17;0.40;;;4.60;99.90;;;;;;5094852;28;20056;-75
2021/03/14 01:59:20;;;;;;;0.52;0.50;;;4.60;99.90;;;;;;5094683;28;20031;-76
2021/03/14 02:01:45;;;;;;;2.28;0.50;;;4.60;99.90;;;;;;5094728;28;20391;-76
2021/03/14 02:04:11;;;;;;;0.30;0.30;;;4.60;99.90;;;;;;5094473;28;20027;-75
2021/03/14 02:06:37;;;;;;;0.40;0.40;;;4.60;99.90;;;;;;5094582;28;20032;-75
2021/03/14 02:09:03;;;;;;;0.47;0.45;;;4.70;99.90;;;;;;5094484;28;20013;-75
2021/03/14 02:11:34;;;;;;;0.65;0.45;;;4.60;99.90;;;;;;5094683;28;20387;-75
2021/03/14 02:14:02;;;;;;;0.30;0.30;;;4.40;99.90;;;;;;5094551;28;20028;-75
2021/03/14 02:16:40;;;;;;;0.55;0.50;;;4.50;99.90;;;;;;5094248;28;20024;-75
2021/03/14 02:19:10;;;;;;;0.43;0.43;;;4.50;99.90;;;;;;5094371;28;20043;-76
2021/03/14 02:21:37;;;;;;;0.45;0.45;;;4.60;99.90;;;;;;5059505;28;20162;-76
2021/03/14 02:24:14;;;;;;;0.30;0.30;;;4.70;99.90;;;;;;5094296;28;20059;-75
2021/03/14 02:26:45;;;;;;;0.52;0.52;;;4.80;99.90;;;;;;5094766;28;20459;-76
2021/03/14 02:29:21;;;;;;;0.40;0.40;;;4.80;99.90;;;;;;5076234;28;20016;-75
2021/03/14 02:31:50;;;;;;;0.30;0.30;;;4.90;99.90;;;;;;5094243;28;20032;-76
2021/03/14 02:34:24;;;;;;;0.50;0.50;;;4.80;99.90;;;;;;5094172;28;20062;-76
2021/03/14 02:36:51;;;;;;;0.40;0.40;;;4.50;99.90;;;;;;5094016;28;20030;-75
2021/03/14 02:39:21;;;;;;;1.45;0.40;;;4.40;99.90;;;;;;5093939;28;20257;-76
2021/03/14 02:41:48;;;;;;;0.30;0.30;;;4.50;99.90;;;;;;5075909;28;20035;-76
2021/03/14 02:44:15;;;;;;;0.30;0.30;;;4.30;99.90;;;;;;5075763;28;20020;-76
2021/03/14 02:46:45;;;;;;;0.30;0.30;;;4.30;99.90;;;;;;5093829;28;20020;-76
2021/03/14 02:49:12;;;;;;;0.50;0.50;;;4.30;99.90;;;;;;5093790;28;20021;-76
2021/03/14 02:51:39;;;;;;;0.45;0.45;;;4.20;99.90;;;;;;5093811;28;20028;-76
2021/03/14 02:54:07;;;;;;;0.40;0.40;;;4.10;99.90;;;;;;5075540;28;20492;-75
2021/03/14 02:56:33;;;;;;;0.47;0.47;;;3.80;99.90;;;;;;5093714;28;20024;-76
2021/03/14 02:59:00;;;;;;;0.50;0.50;;;3.70;99.90;;;;;;5093571;28;20084;-76
2021/03/14 03:01:26;;;;;;;1.45;0.50;;;3.70;99.90;;;;;;5093629;28;20035;-76
2021/03/14 03:03:55;;;;;;;0.40;0.40;;;3.80;99.90;;;;;;5093305;28;20476;-75
2021/03/14 03:06:21;;;;;;;0.40;0.40;;;3.80;99.90;;;;;;5093394;28;20372;-76
2021/03/14 03:08:47;;;;;;;0.40;0.40;;;3.80;99.90;;;;;;5093463;28;20020;-75
2021/03/14 03:11:15;;;;;;;0.40;0.40;;;3.60;99.90;;;;;;5093615;28;20024;-75
2021/03/14 03:13:42;;;;;;;0.45;0.40;;;3.50;99.90;;;;;;5093464;28;20499;-76
2021/03/14 03:16:12;;;;;;;0.40;0.40;;;3.30;99.90;;;;;;5093268;28;20092;-76
2021/03/14 03:18:40;;;;;;;0.40;0.40;;;3.20;99.90;;;;;;5093155;28;20043;-76
2021/03/14 03:21:08;;;;;;;0.40;0.40;;;3.20;99.90;;;;;;5075351;28;20020;-76
2021/03/14 03:23:35;;;;;;;0.40;0.40;;;3.20;99.90;;;;;;5093229;28;20020;-76
2021/03/14 03:26:02;;;;;;;0.40;0.40;;;3.20;99.90;;;;;;5093002;28;20028;-75
2021/03/14 03:28:28;;;;;;;0.50;0.50;;;3.10;99.90;;;;;;5093079;28;20027;-75
2021/03/14 03:30:54;;;;;;;1.25;0.57;;;3.00;99.90;;;;;;5092533;28;20020;-76
2021/03/14 03:33:20;;;;;;;1.17;0.40;;;3.00;99.90;;;;;;5092964;28;20032;-75
2021/03/14 03:35:46;;;;;;;0.50;0.50;;;3.00;99.90;;;;;;5093060;28;20047;-75
2021/03/14 03:38:12;;;;;;;1.38;0.43;;;3.00;99.90;;;;;;5074657;28;20162;-75
2021/03/14 03:40:38;;;;;;;0.50;0.50;;;3.10;99.90;;;;;;5092885;28;20058;-76
2021/03/14 03:43:19;;;;;;;1.05;0.57;;;3.10;99.90;;;;;;5092834;28;20067;-76
2021/03/14 03:45:48;;;;;;;0.63;0.50;;;3.10;99.90;;;;;;5057981;28;20024;-76
2021/03/14 03:48:20;;;;;;;2.17;0.40;;;3.00;99.90;;;;;;5092697;28;20019;-75
2021/03/14 03:50:49;;;;;;;0.60;0.60;;;3.00;99.90;;;;;;5092795;28;20038;-75
2021/03/14 03:53:16;;;;;;;0.60;0.60;;;3.00;99.90;;;;;;5092654;28;20024;-76
2021/03/14 03:55:43;;;;;;;0.73;0.50;;;3.10;99.90;;;;;;5074489;28;20450;-76
2021/03/14 03:58:10;;;;;;;0.40;0.40;;;3.20;99.90;;;;;;5092350;28;20387;-76
2021/03/14 04:00:36;;;;;;;0.30;0.30;;;3.20;99.90;;;;;;5092570;28;20020;-76
2021/03/14 04:03:04;;;;;;;0.85;0.50;;;3.20;99.90;;;;;;5074360;28;20052;-76
2021/03/14 04:05:30;;;;;;;0.47;0.47;;;3.10;99.90;;;;;;5091989;28;20020;-75
2021/03/14 04:07:56;;;;;;;0.47;0.47;;;3.20;99.90;;;;;;5092370;28;20020;-76
2021/03/14 04:10:24;;;;;;;2.47;0.40;;;3.30;99.90;;;;;;5092312;28;20032;-75
2021/03/14 04:12:51;;;;;;;0.57;0.40;;;3.20;99.90;;;;;;5092355;28;20073;-76
2021/03/14 04:15:21;;;;;;;0.45;0.45;;;3.30;99.90;;;;;;5092211;28;20028;-75
2021/03/14 04:17:48;;;;;;;0.47;0.40;;;3.10;99.90;;;;;;5092151;28;20031;-76
2021/03/14 04:20:20;;;;;;;0.52;0.45;;;3.00;99.90;;;;;;5092214;28;20077;-75
2021/03/14 04:22:51;;;;;;;2.65;0.43;;;2.90;99.90;;;;;;5057255;28;20024;-75
2021/03/14 04:25:19;;;;;;;0.47;0.47;;;2.80;99.90;;;;;;5092313;28;20076;-75
2021/03/14 04:27:48;;;;;;;0.40;0.40;;;2.80;99.90;;;;;;5092337;28;20384;-76
2021/03/14 04:30:15;;;;;;;0.40;0.40;;;2.90;99.90;;;;;;5092152;28;20155;-75
2021/03/14 04:32:41;;;;;;;0.40;0.40;;;2.80;99.90;;;;;;5092130;28;20028;-76
2021/03/14 04:35:08;;;;;;;0.50;0.50;;;2.80;99.90;;;;;;5091884;28;20028;-76
2021/03/14 04:37:37;;;;;;;0.50;0.50;;;2.90;99.90;;;;;;5092102;28;20036;-75
2021/03/14 04:40:04;;;;;;;0.65;0.55;;;2.90;99.90;;;;;;5092052;28;20101;-75
2021/03/14 04:42:30;;;;;;;0.50;0.50;;;2.80;99.90;;;;;;5092998;28;20031;-75
2021/03/14 04:44:56;;;;;;;0.38;0.38;;;2.80;99.90;;;;;;5096224;28;20387;-76
2021/03/14 04:47:22;;;;;;;0.40;0.40;;;2.90;99.90;;;;;;5061297;28;20395;-76
2021/03/14 04:49:48;;;;;;;0.40;0.40;;;2.90;99.90;;;;;;5096102;28;20085;-76
2021/03/14 04:52:18;;;;;;;0.40;0.40;;;2.80;99.90;;;;;;5096400;28;20032;-76
2021/03/14 04:54:46;;;;;;;0.50;0.50;;;2.90;99.90;;;;;;5095783;28;20030;-76
2021/03/14 04:57:12;;;;;;;0.52;0.52;;;2.80;99.90;;;;;;5095987;28;20032;-75
2021/03/14 04:59:41;;;;;;;0.40;0.40;;;2.80;99.90;;;;;;5095991;28;20050;-76
2021/03/14 05:02:08;;;;;;;0.40;0.40;;;2.90;99.90;;;;;;5095797;28;20028;-75
2021/03/14 05:04:34;;;;;;;0.40;0.40;;;2.90;99.90;;;;;;5095387;28;20016;-75
2021/03/14 05:07:01;;;;;;;0.73;0.40;;;2.80;99.90;;;;;;5095805;28;20030;-75
2021/03/14 05:09:27;;;;;;;0.40;0.40;;;2.90;99.90;;;;;;5095620;28;20020;-75
2021/03/14 05:11:54;;;;;;;0.40;0.40;;;2.90;99.90;;;;;;5095827;28;20024;-75
2021/03/14 05:14:20;;;;;;;0.50;0.50;;;3.00;99.90;;;;;;5095650;28;20108;-76
2021/03/14 05:16:46;;;;;;;0.32;0.32;;;2.90;99.90;;;;;;5095391;28;20027;-75
2021/03/14 05:19:14;;;;;;;0.50;0.50;;;2.90;99.90;;;;;;5095559;28;20108;-75
2021/03/14 05:21:41;;;;;;;0.50;0.50;;;3.00;99.90;;;;;;5095555;28;20463;-75
2021/03/14 05:24:10;;;;;;;0.50;0.50;;;2.90;99.90;;;;;;5095478;28;20501;-75
2021/03/14 05:26:38;;;;;;;0.40;0.40;;;2.90;99.90;;;;;;5077130;28;20016;-76
2021/03/14 05:29:04;;;;;;;0.30;0.30;;;2.90;99.90;;;;;;5077069;28;20024;-75
2021/03/14 05:31:35;;;;;;;4.18;1.52;;;2.80;99.90;;;;;;5095393;28;20082;-76
2021/03/14 05:34:07;;;;;;;3.53;0.75;;;2.80;99.90;;;;;;5095396;28;20051;-75
2021/03/14 05:36:33;;;;;;;0.65;0.65;;;2.90;99.90;;;;;;5095199;28;20028;-76
2021/03/14 05:39:01;;;;;;;0.30;0.30;;;2.90;99.90;;;;;;5095180;28;20429;-76
2021/03/14 05:41:27;;;;;;;0.70;0.70;;;2.90;99.90;;;;;;5077007;28;20028;-75
2021/03/14 05:43:53;;;;;;;0.90;0.73;;;2.90;99.90;;;;;;5095187;28;20012;-75
2021/03/14 05:46:19;;;;;;;0.60;0.60;;;2.90;99.90;;;;;;5076814;28;20031;-75
2021/03/14 05:48:46;;;;;;;0.50;0.50;;;2.80;99.90;;;;;;5095147;28;20089;-76
2021/03/14 05:51:36;;;;;;;2.95;0.60;;;2.70;99.90;;;;;;5095030;28;20081;-76
2021/03/14 05:54:02;;;;;;;0.50;0.50;;;2.80;99.90;;;;;;5094495;28;20035;-76
2021/03/14 05:56:30;;;;;;;0.60;0.60;;;2.80;99.90;;;;;;5076699;28;20028;-76
2021/03/14 05:58:57;;;;;;;0.82;0.55;;;2.70;99.90;;;;;;5094794;28;20024;-76
2021/03/14 06:01:28;;;;;;;0.70;0.70;;;2.60;99.90;;;;;;5094864;28;20509;-77
2021/03/14 06:03:55;;;;;;;2.10;1.20;;;2.50;99.90;;;;;;5099454;28;20023;-75
2021/03/14 06:06:22;;;;;;;0.82;0.80;;;2.50;99.90;;;;;;5110601;28;20273;-76
2021/03/14 06:08:49;;;;;;;0.75;0.75;;;2.70;99.90;;;;;;5060548;28;20173;-75
2021/03/14 06:11:15;;;;;;;1.17;0.73;;;2.60;99.90;;;;;;5097730;28;20378;-76
2021/03/14 06:13:41;;;;;;;1.40;1.00;;;2.70;99.90;;;;;;5105558;28;20095;-76
2021/03/14 06:16:08;;;;;;;0.65;0.50;;;2.60;99.90;;;;;;5094310;28;20032;-76
2021/03/14 06:18:34;;;;;;;2.13;0.95;;;2.60;99.90;;;;;;5094134;28;20028;-76
2021/03/14 06:21:02;;;;;;;0.88;0.88;;;2.60;99.90;;;;;;5107809;28;20360;-76
2021/03/14 06:23:28;;;;;;;6.05;0.90;;;2.70;99.90;;;;;;5114593;28;20016;-75
2021/03/14 06:25:55;;;;;;;1.30;1.20;;;2.70;99.90;;;;;;5114519;28;20098;-76
2021/03/14 06:28:35;;;;;;;1.75;1.25;;;2.90;99.90;;;;;;5114697;28;20030;-76
2021/03/14 06:31:20;;;;;;;4.63;2.13;;;3.00;99.90;;;;;;5114608;28;20483;-76
2021/03/14 06:33:46;;;;;;;0.95;0.70;;;3.10;99.90;;;;;;5114630;28;20020;-76
2021/03/14 06:36:19;;;;;;;0.77;0.70;;;3.10;99.90;;;;;;5079305;28;20053;-76
2021/03/14 06:38:45;;;;;;;0.80;0.80;;;3.00;99.90;;;;;;5114500;28;20028;-77
2021/03/14 06:41:17;;;;;;;2.08;1.00;;;2.90;99.90;;;;;;5114275;28;20027;-76
2021/03/14 06:43:50;;;;;;;;;;;2.90;99.90;;;;;;5115318;28;20031;-77
2021/03/14 06:46:28;;;;;;;1.05;0.80;;;3.10;99.90;;;;;;5114262;28;19910;-76
2021/03/14 06:49:13;;;;;;;0.90;0.90;;;3.00;99.90;;;;;;5114278;28;20023;-76
2021/03/14 06:51:48;;;;;;;3.70;1.13;;;3.00;99.90;;;;;;5095825;28;20024;-77
2021/03/14 06:54:41;;;;;;;0.70;0.70;;;3.10;99.90;;;;;;5114283;28;20035;-76
2021/03/14 06:57:20;;;;;;;0.82;0.82;;;3.00;99.90;;;;;;5102059;28;20039;-76
2021/03/14 06:59:53;;;;;;;0.80;0.80;;;3.00;99.90;;;;;;5114057;28;20116;-76
2021/03/14 07:02:24;;;;;;;3.22;0.95;;;2.90;99.90;;;;;;5113707;28;20019;-76
2021/03/14 07:04:57;;;;;;;0.70;0.70;;;2.80;99.90;;;;;;5113097;28;20415;-76
2021/03/14 07:07:37;;;;;;;1.85;1.17;;;2.80;99.90;;;;;;5113737;28;20016;-76
2021/03/14 07:10:16;;;;;;;7.40;1.25;;;2.70;99.90;;;;;;5095575;28;20077;-76
2021/03/14 07:12:44;;;;;;;1.40;1.00;;;2.80;99.90;;;;;;5078366;28;20027;-76
2021/03/14 07:15:11;;;;;;;3.38;0.95;;;3.10;99.90;;;;;;5113522;28;20019;-76
2021/03/14 07:17:38;;;;;;;3.38;1.10;;;3.00;99.90;;;;;;5095172;28;20046;-76
2021/03/14 07:20:15;;;;;;;0.70;0.70;;;3.00;99.90;;;;;;5095349;28;20027;-75
2021/03/14 07:22:41;;;;;;;1.13;0.70;;;3.20;99.90;;;;;;5113440;28;20027;-75
2021/03/14 07:25:21;;;;;;;2.30;0.70;;;3.20;99.90;;;;;;5078175;28;20233;-76
2021/03/14 07:27:48;;;;;;;2.17;0.88;;;2.90;99.90;;;;;;5104070;28;20016;-75
2021/03/14 07:30:16;;;;;;;0.77;0.68;;;2.90;99.90;;;;;;5110059;28;20111;-76
2021/03/14 07:32:42;;;;;;;1.63;0.75;;;2.80;99.90;;;;;;5093129;28;20127;-76
2021/03/14 07:35:09;;;;;;;5.90;1.13;;;2.80;99.90;;;;;;5059009;28;20020;-76
2021/03/14 07:37:39;;;;;;;3.75;1.10;;;2.90;99.90;;;;;;5092653;28;20039;-76
2021/03/14 07:40:05;;;;;;;2.92;0.98;;;3.00;99.90;;;;;;5092820;28;20023;-76
2021/03/14 07:42:32;;;;;;;1.58;1.10;;;3.10;99.90;;;;;;5092825;28;20089;-76
2021/03/14 07:44:58;;;;;;;3.58;1.23;;;3.10;99.90;;;;;;5107592;28;20471;-76
2021/03/14 07:47:29;;;;;;;2.50;1.42;;;3.20;99.90;;;;;;5094840;28;20107;-76
2021/03/14 07:49:55;;;;;;;1.63;1.40;;;3.30;99.90;;;;;;5094673;28;20072;-76
2021/03/14 07:52:30;;;;;;;1.73;0.93;;;3.30;99.90;;;;;;5094657;28;20050;-76
2021/03/14 07:55:06;;;;;;;1.95;1.00;;;3.40;99.90;;;;;;5094798;28;20048;-76
2021/03/14 07:57:32;;;;;;;1.92;1.05;;;3.30;99.90;;;;;;5094630;28;20033;-76
2021/03/14 08:00:33;;;;;;;6.30;1.00;;;3.20;99.90;;;;;;5112706;28;20023;-76
2021/03/14 08:03:07;;;;;;;2.95;1.20;;;3.00;99.90;;;;;;5054187;28;20036;-76
2021/03/14 08:05:40;;;;;;;2.60;0.98;;;3.00;99.90;;;;;;5072378;28;20023;-76
2021/03/14 08:08:10;;;;;;;0.75;0.75;;;3.00;99.90;;;;;;5109032;28;20019;-76
2021/03/14 08:10:44;;;;;;;5.13;1.00;;;2.80;99.90;;;;;;5092279;28;20019;-76
2021/03/14 08:13:37;;;;;;;2.72;1.65;;;2.70;99.90;;;;;;5098048;28;20027;-76
2021/03/14 08:16:09;;;;;;;3.55;1.42;;;2.80;99.90;;;;;;5112244;28;20024;-76
2021/03/14 08:18:48;;;;;;;2.30;1.05;;;2.70;99.90;;;;;;5093703;28;20027;-76
2021/03/14 08:21:35;;;;;;;4.03;1.00;;;2.70;99.90;;;;;;5110268;28;20092;-76
2021/03/14 08:24:02;;;;;;;1.45;0.90;;;2.60;99.90;;;;;;5073774;28;20387;-76
2021/03/14 08:26:32;;;;;;;6.05;1.83;;;2.40;99.90;;;;;;5092066;28;20028;-76
2021/03/14 08:29:00;;;;;;;2.78;1.92;;;2.40;99.90;;;;;;5091947;28;20028;-76
2021/03/14 08:31:44;;;;;;;4.30;1.63;;;2.50;99.90;;;;;;5092054;28;20043;-76
2021/03/14 08:34:19;;;;;;;2.60;1.23;;;2.70;99.90;;;;;;5091750;28;20027;-76
2021/03/14 08:36:45;;;;;;;1.98;1.20;;;2.70;99.90;;;;;;5073734;28;20490;-75
2021/03/14 08:39:36;;;;;;;3.33;1.35;;;2.60;99.90;;;;;;5083290;28;20018;-76
2021/03/14 08:42:06;;;;;;;4.38;1.40;;;2.60;99.90;;;;;;5077206;28;20027;-76
2021/03/14 08:44:39;;;;;;;1.25;1.00;;;2.70;99.90;;;;;;5111919;28;20506;-76
2021/03/14 08:47:05;;;;;;;4.57;1.13;;;2.80;99.90;;;;;;5112400;28;20012;-76
2021/03/14 08:49:32;;;;;;;3.38;1.17;;;2.90;99.90;;;;;;5079998;28;20043;-76
2021/03/14 08:51:58;;;;;;;6.47;1.50;;;3.00;99.90;;;;;;5073563;28;20035;-76
2021/03/14 08:54:33;;;;;;;5.05;1.30;;;3.10;99.90;;;;;;5073608;28;20024;-76
2021/03/14 08:57:03;;;;;;;2.33;1.38;;;3.00;99.90;;;;;;5091754;28;20047;-76
2021/03/14 08:59:29;;;;;;;3.33;1.33;;;3.10;99.90;;;;;;5088277;28;20450;-76
2021/03/14 09:01:57;;;;;;;3.33;1.33;;;3.10;99.90;;;;;;5068880;28;20520;-76
2021/03/14 09:04:26;;;;;;;2.85;1.58;;;3.20;99.90;;;;;;5091695;28;20108;-76
2021/03/14 09:06:59;;;;;;;5.18;1.50;;;3.30;99.90;;;;;;5091730;28;20020;-76
2021/03/14 09:09:25;;;;;;;4.63;1.20;;;3.50;99.90;;;;;;5073521;28;20092;-76
2021/03/14 09:11:52;;;;;;;4.10;1.42;;;3.40;99.90;;;;;;5091711;28;20110;-76
2021/03/14 09:14:43;;;;;;;7.53;1.25;;;3.40;99.90;;;;;;5091595;28;20024;-76
2021/03/14 09:17:20;;;;;;;6.90;3.50;;;3.60;99.90;;;;;;5073515;28;20403;-76
2021/03/14 09:19:53;;;;;;;5.95;1.17;;;3.50;99.90;;;;;;5073207;28;20051;-76
2021/03/14 09:22:19;;;;;;;3.33;1.77;;;3.60;99.90;;;;;;5073375;28;20024;-76
2021/03/14 09:24:50;;;;;;;8.38;1.40;;;3.70;99.90;;;;;;5056583;28;20464;-76
2021/03/14 09:27:49;;;;;;;5.00;1.58;;;3.80;99.90;;;;;;5091512;28;20016;-76
2021/03/14 09:30:19;;;;;;;2.90;1.42;;;3.90;99.90;;;;;;5039779;28;20042;-76
2021/03/14 09:32:52;;;;;;;3.60;1.25;;;4.00;99.90;;;;;;5077175;28;20031;-76
2021/03/14 09:35:24;;;;;;;3.60;1.80;;;4.10;99.90;;;;;;5076911;28;20089;-76
2021/03/14 09:37:52;;;;;;;4.63;2.15;;;4.30;99.90;;;;;;5095173;28;20028;-76
2021/03/14 09:40:41;;;;;;;3.70;1.60;;;4.50;99.90;;;;;;5095183;28;20024;-76
2021/03/14 09:43:18;;;;;;;3.95;1.77;;;4.50;99.90;;;;;;5095219;28;20487;-76
2021/03/14 09:45:59;;;;;;;3.90;1.80;;;4.10;99.90;;;;;;5076769;28;20031;-77
2021/03/14 09:48:26;;;;;;;8.57;1.30;;;3.90;99.90;;;;;;5094990;28;20028;-76
2021/03/14 09:50:59;;;;;;;7.18;2.10;;;3.90;99.90;;;;;;5094870;28;20040;-76
2021/03/14 09:53:33;;;;;;;5.95;2.40;;;3.90;99.90;;;;;;5095039;28;20095;-76
2021/03/14 09:56:01;;;;;;;5.63;1.73;;;4.00;99.90;;;;;;5059997;28;20365;-76
2021/03/14 09:58:28;;;;;;;6.78;2.22;;;3.90;99.90;;;;;;5094823;28;20213;-76
2021/03/14 10:00:56;;;;;;;3.92;1.50;;;4.00;99.90;;;;;;5094738;28;20024;-76
2021/03/14 10:03:27;;;;;;;2.25;1.38;;;4.00;99.90;;;;;;5076396;28;20522;-76
2021/03/14 10:05:56;;;;;;;8.17;3.67;;;3.90;99.90;;;;;;5094599;28;20020;-76
2021/03/14 10:08:22;;;;;;;3.65;1.52;;;4.00;99.90;;;;;;5076510;28;20016;-76
2021/03/14 10:10:51;;;;;;;3.53;1.20;;;3.70;99.90;;;;;;5076440;28;20471;-76
2021/03/14 10:13:19;;;;;;;3.70;1.60;;;3.80;99.90;;;;;;5103686;28;20027;-76
2021/03/14 10:15:49;;;;;;;8.05;3.65;;;3.70;99.90;;;;;;5114872;28;20024;-76
2021/03/14 10:18:20;;;;;;;6.97;3.47;;;3.60;99.90;;;;;;5096230;28;20170;-76
2021/03/14 10:20:47;;;;;;;3.45;1.85;;;3.50;99.90;;;;;;5096769;28;20379;-76
2021/03/14 10:23:13;;;;;;;3.72;2.40;;;3.20;99.90;;;;;;5114844;28;20492;-76
2021/03/14 10:25:40;;;;;;;6.45;2.75;;;2.90;99.90;;;;;;5096005;28;20360;-76
2021/03/14 10:28:14;;;;;;;8.30;3.45;;;3.00;99.90;;;;;;5096473;28;20020;-76
2021/03/14 10:30:42;;;;;;;2.15;1.95;;;3.20;99.90;;;;;;5096357;28;20020;-76
2021/03/14 10:33:10;;;;;;;6.32;2.50;;;3.00;99.90;;;;;;5114528;28;20069;-76
2021/03/14 10:35:36;;;;;;;5.28;2.63;;;2.90;99.90;;;;;;5096006;28;20124;-76
2021/03/14 10:38:38;;;;;;;15.02;6.38;;;3.10;99.90;;;;;;5095903;28;20035;-76
2021/03/14 10:41:23;;;;;;;12.03;3.00;;;3.20;99.90;;;;;;5081036;28;20047;-76
2021/03/14 10:43:54;;;;;;;16.50;5.65;;;3.20;99.90;;;;;;5096185;28;20277;-76
2021/03/14 10:46:38;;;;;;;19.42;5.72;;;3.30;99.90;;;;;;5096019;28;20016;-76
2021/03/14 10:49:08;;;;;;;12.77;4.30;;;3.60;99.90;;;;;;5113965;28;20098;-76
2021/03/14 10:51:38;;;;;;;14.15;7.00;;;3.70;99.90;;;;;;5114252;28;20483;-77
2021/03/14 10:54:07;;;;;;;7.05;3.70;;;3.80;99.90;;;;;;5114099;28;20020;-76
2021/03/14 10:56:41;;;;;;;3.45;1.92;;;3.90;99.90;;;;;;5085847;28;20513;-76
2021/03/14 10:59:21;;;;;;;4.07;2.20;;;4.00;99.90;;;;;;5093497;28;20036;-76
2021/03/14 11:01:49;;;;;;;5.80;2.13;;;4.10;99.90;;;;;;5093510;28;20050;-76
2021/03/14 11:04:14;;;;;;;7.63;4.40;;;3.80;99.90;;;;;;5093433;28;20092;-76
2021/03/14 11:06:40;;;;;;;7.57;3.38;;;3.80;99.90;;;;;;5075425;28;20028;-76
2021/03/14 11:09:09;;;;;;;15.27;7.25;;;3.90;99.90;;;;;;5075211;28;20028;-76
2021/03/14 11:11:42;;;;;;;6.05;2.97;;;4.10;99.90;;;;;;5093543;28;20043;-76
2021/03/14 11:14:24;;;;;;;5.25;2.85;;;4.30;99.90;;;;;;5109647;28;20046;-76
2021/03/14 11:17:14;;;;;;;5.75;1.80;;;3.80;99.90;;;;;;5094964;28;20077;-76
2021/03/14 11:19:48;;;;;;;6.70;2.40;;;3.40;99.90;;;;;;5113553;28;20386;-76
2021/03/14 11:22:17;;;;;;;8.23;3.47;;;3.20;99.90;;;;;;5113509;28;20019;-76
2021/03/14 11:24:45;;;;;;;7.22;3.17;;;3.30;99.90;;;;;;5113540;28;20479;-76
2021/03/14 11:27:12;;;;;;;9.27;4.40;;;3.20;99.90;;;;;;5113317;28;20016;-76
2021/03/14 11:29:38;;;;;;;12.95;5.32;;;3.30;99.90;;;;;;5095283;28;20020;-76
2021/03/14 11:32:06;;;;;;;11.60;4.65;;;3.50;99.90;;;;;;5095405;28;20032;-78
2021/03/14 11:34:32;;;;;;;18.92;5.32;;;3.70;99.90;;;;;;5078346;28;20076;-76
2021/03/14 11:36:58;;;;;;;9.48;4.22;;;3.90;99.90;;;;;;5113293;28;20490;-76
2021/03/14 11:39:23;;;;;;;8.45;3.80;;;3.80;99.90;;;;;;5113270;28;20378;-76
2021/03/14 11:41:49;;;;;;;18.42;5.40;;;3.60;99.90;;;;;;5112923;28;20023;-76
2021/03/14 11:44:15;;;;;;;10.77;4.88;;;3.40;99.90;;;;;;5113177;28;20541;-76
2021/03/14 11:46:41;;;;;;;7.63;3.20;;;3.30;99.90;;;;;;5113050;28;20020;-76
2021/03/14 11:49:07;;;;;;;10.35;4.15;;;3.30;99.90;;;;;;5112998;28;20078;-76
2021/03/14 11:51:33;;;;;;;6.85;3.60;;;2.90;99.90;;;;;;5112718;28;20038;-76
2021/03/14 11:53:59;;;;;;;6.00;3.25;;;2.70;99.90;;;;;;5094921;28;20032;-76
2021/03/14 11:56:26;;;;;;;4.05;2.65;;;2.60;99.90;;;;;;5112699;28;20530;-76
2021/03/14 11:58:53;;;;;;;5.18;1.40;;;2.70;99.90;;;;;;5112807;28;20066;-75
2021/03/14 12:01:19;;;;;;;3.05;1.40;;;2.70;99.90;;;;;;5094450;28;20031;-76
2021/03/14 12:03:46;;;;;;;4.05;1.67;;;2.60;99.90;;;;;;5112992;28;20024;-76
2021/03/14 12:06:12;;;;;;;2.22;1.20;;;2.80;99.90;;;;;;5112660;28;20043;-76
2021/03/14 12:08:38;;;;;;;2.47;1.25;;;3.00;99.90;;;;;;5112665;28;20019;-76
2021/03/14 12:11:05;;;;;;;5.18;1.52;;;3.30;99.90;;;;;;5112630;28;20026;-76
2021/03/14 12:13:32;;;;;;;2.55;1.60;;;3.70;99.90;;;;;;5101580;28;20359;-76
2021/03/14 12:15:58;;;;;;;10.98;3.25;;;4.00;99.90;;;;;;5091993;28;20025;-76
2021/03/14 12:18:24;;;;;;;2.53;1.38;;;4.20;99.90;;;;;;5091961;28;20032;-76
2021/03/14 12:20:50;;;;;;;1.50;1.10;;;4.10;99.90;;;;;;5092199;28;20017;-76
2021/03/14 12:23:17;;;;;;;3.35;1.60;;;4.30;99.90;;;;;;5092244;28;20028;-76
2021/03/14 12:25:43;;;;;;;2.22;1.60;;;4.30;99.90;;;;;;5091955;28;20023;-76
2021/03/14 12:28:09;;;;;;;4.13;2.35;;;4.30;99.90;;;;;;5092051;28;20023;-76
2021/03/14 12:30:35;;;;;;;5.03;2.60;;;4.50;99.90;;;;;;5092092;28;20023;-76
2021/03/14 12:33:01;;;;;;;5.22;2.20;;;4.70;99.90;;;;;;5092137;28;20043;-76
2021/03/14 12:35:26;;;;;;;8.57;1.90;;;5.00;99.90;;;;;;5073965;28;20028;-76
2021/03/14 12:37:52;;;;;;;5.88;2.67;;;5.10;99.50;;;;;;5073829;28;20028;-76
2021/03/14 12:40:18;;;;;;;3.53;2.10;;;5.30;98.20;;;;;;5091928;28;20035;-76
2021/03/14 12:42:44;;;;;;;4.32;1.80;;;5.20;96.30;;;;;;5073907;28;20020;-76
2021/03/14 12:45:11;;;;;;;4.13;1.70;;;5.60;98.10;;;;;;5091698;28;20024;-76
2021/03/14 12:47:37;;;;;;;5.78;1.48;;;5.80;97.00;;;;;;5091858;28;20032;-76
2021/03/14 12:50:05;;;;;;;5.85;2.10;;;5.80;96.40;;;;;;5073697;28;20020;-76
2021/03/14 12:52:31;;;;;;;2.35;1.63;;;5.80;96.40;;;;;;5092294;28;20032;-77
2021/03/14 12:54:57;;;;;;;6.68;1.83;;;5.80;96.40;;;;;;5091757;28;20360;-76
2021/03/14 12:57:23;;;;;;;5.90;2.00;;;5.60;95.00;;;;;;5091819;28;20383;-76
2021/03/14 12:59:48;;;;;;;7.88;2.60;;;5.30;95.60;;;;;;5090448;28;20020;-76
2021/03/14 13:02:14;;;;;;;6.63;2.95;;;5.00;98.40;;;;;;5091672;28;20429;-76
2021/03/14 13:04:40;;;;;;;11.55;5.80;;;4.70;99.90;;;;;;5094583;28;20020;-76
2021/03/14 13:07:05;;;;;;;24.83;10.38;;;4.30;99.90;;;;;;5095672;28;20016;-76
2021/03/14 13:09:31;;;;;;;16.35;6.22;;;4.40;99.90;;;;;;5076914;28;20016;-76